sensor_id;sensor_type;location;lat;lon;timestamp;pressure;altitude;pressure_sealevel;temperature;humidity
50268;BME280;36153;50.960;6.220;2023-03-23T00:02:30;99433.91;;;16.96;52.99
50268;BME280;36153;50.960;6.220;2023-03-23T00:05:38;99428.81;;;16.92;52.90
50268;BME280;36153;50.960;6.220;2023-03-23T00:08:42;99441.97;;;16.92;53.07
50268;BME280;36153;50.960;6.220;2023-03-23T00:11:47;99421.56;;;17.00;52.69
50268;BME280;36153;50.960;6.220;2023-03-23T00:14:48;99429.44;;;17.00;52.54
50268;BME280;36153;50.960;6.220;2023-03-23T00:17:55;99430.28;;;17.00;52.45
50268;BME280;36153;50.960;6.220;2023-03-23T00:21:03;99447.72;;;17.03;52.47
50268;BME280;36153;50.960;6.220;2023-03-23T00:24:18;99452.00;;;17.07;52.62
50268;BME280;36153;50.960;6.220;2023-03-23T00:27:21;99445.31;;;16.97;52.91
50268;BME280;36153;50.960;6.220;2023-03-23T00:30:23;99433.44;;;17.12;52.41
50268;BME280;36153;50.960;6.220;2023-03-23T00:33:30;99407.34;;;16.77;53.35
50268;BME280;36153;50.960;6.220;2023-03-23T00:36:34;99416.03;;;16.79;53.41
50268;BME280;36153;50.960;6.220;2023-03-23T00:39:44;99422.84;;;16.85;53.17
50268;BME280;36153;50.960;6.220;2023-03-23T00:42:46;99429.50;;;16.68;53.91
50268;BME280;36153;50.960;6.220;2023-03-23T00:45:48;99432.25;;;16.94;53.18
50268;BME280;36153;50.960;6.220;2023-03-23T00:48:52;99422.28;;;17.05;52.85
50268;BME280;36153;50.960;6.220;2023-03-23T00:51:55;99426.09;;;16.95;53.56
50268;BME280;36153;50.960;6.220;2023-03-23T00:54:56;99425.19;;;16.66;54.37
50268;BME280;36153;50.960;6.220;2023-03-23T00:57:57;99438.53;;;16.60;54.53
50268;BME280;36153;50.960;6.220;2023-03-23T01:00:57;99424.53;;;16.59;54.68
50268;BME280;36153;50.960;6.220;2023-03-23T01:03:58;99416.31;;;16.70;54.24
50268;BME280;36153;50.960;6.220;2023-03-23T01:07:00;99409.69;;;16.58;54.43
50268;BME280;36153;50.960;6.220;2023-03-23T01:10:01;99403.81;;;16.50;55.50
50268;BME280;36153;50.960;6.220;2023-03-23T01:13:02;99424.09;;;16.45;56.41
50268;BME280;36153;50.960;6.220;2023-03-23T01:16:06;99436.03;;;16.25;57.45
50268;BME280;36153;50.960;6.220;2023-03-23T01:19:07;99430.97;;;16.19;57.91
50268;BME280;36153;50.960;6.220;2023-03-23T01:22:08;99430.69;;;16.28;58.39
50268;BME280;36153;50.960;6.220;2023-03-23T01:25:09;99421.75;;;16.04;59.23
50268;BME280;36153;50.960;6.220;2023-03-23T01:28:10;99419.59;;;16.18;59.42
50268;BME280;36153;50.960;6.220;2023-03-23T01:31:14;99377.41;;;16.25;59.34
50268;BME280;36153;50.960;6.220;2023-03-23T01:34:16;99380.16;;;16.21;59.30
50268;BME280;36153;50.960;6.220;2023-03-23T01:37:16;99379.13;;;15.96;59.47
50268;BME280;36153;50.960;6.220;2023-03-23T01:40:17;99361.03;;;16.16;58.89
50268;BME280;36153;50.960;6.220;2023-03-23T01:43:18;99349.53;;;16.20;59.16
50268;BME280;36153;50.960;6.220;2023-03-23T01:46:19;99369.16;;;16.07;58.92
50268;BME280;36153;50.960;6.220;2023-03-23T01:49:28;99359.34;;;16.14;58.13
50268;BME280;36153;50.960;6.220;2023-03-23T01:52:30;99378.22;;;16.27;57.17
50268;BME280;36153;50.960;6.220;2023-03-23T01:55:33;99372.97;;;16.27;57.11
50268;BME280;36153;50.960;6.220;2023-03-23T01:58:34;99347.63;;;16.26;57.02
50268;BME280;36153;50.960;6.220;2023-03-23T02:01:37;99348.00;;;16.42;56.27
50268;BME280;36153;50.960;6.220;2023-03-23T02:04:41;99336.56;;;16.16;56.51
50268;BME280;36153;50.960;6.220;2023-03-23T02:07:42;99335.41;;;16.25;56.34
50268;BME280;36153;50.960;6.220;2023-03-23T02:10:43;99335.31;;;16.28;56.36
50268;BME280;36153;50.960;6.220;2023-03-23T02:13:44;99332.94;;;16.20;56.54
50268;BME280;36153;50.960;6.220;2023-03-23T02:20:33;99331.09;;;16.22;56.58
50268;BME280;36153;50.960;6.220;2023-03-23T02:23:58;99352.22;;;16.19;56.38
50268;BME280;36153;50.960;6.220;2023-03-23T02:27:11;99351.38;;;16.17;56.34
50268;BME280;36153;50.960;6.220;2023-03-23T02:30:35;99354.94;;;16.14;56.34
50268;BME280;36153;50.960;6.220;2023-03-23T02:33:42;99361.47;;;16.31;56.36
50268;BME280;36153;50.960;6.220;2023-03-23T02:36:58;99361.41;;;16.32;56.60
50268;BME280;36153;50.960;6.220;2023-03-23T02:40:18;99353.06;;;16.19;56.78
50268;BME280;36153;50.960;6.220;2023-03-23T02:43:24;99357.31;;;16.24;56.98
50268;BME280;36153;50.960;6.220;2023-03-23T02:46:26;99344.59;;;16.10;57.12
50268;BME280;36153;50.960;6.220;2023-03-23T02:49:29;99346.66;;;16.28;56.99
50268;BME280;36153;50.960;6.220;2023-03-23T02:52:32;99333.88;;;16.17;57.17
50268;BME280;36153;50.960;6.220;2023-03-23T02:55:39;99335.69;;;16.15;57.60
50268;BME280;36153;50.960;6.220;2023-03-23T02:58:42;99333.94;;;16.14;57.37
50268;BME280;36153;50.960;6.220;2023-03-23T03:04:55;99334.69;;;15.90;58.13
50268;BME280;36153;50.960;6.220;2023-03-23T03:08:01;99337.63;;;16.09;57.57
50268;BME280;36153;50.960;6.220;2023-03-23T03:11:11;99341.25;;;16.34;56.84
50268;BME280;36153;50.960;6.220;2023-03-23T03:14:22;99338.94;;;16.24;57.08
50268;BME280;36153;50.960;6.220;2023-03-23T03:17:26;99335.28;;;15.99;57.79
50268;BME280;36153;50.960;6.220;2023-03-23T03:20:31;99324.66;;;16.04;57.73
50268;BME280;36153;50.960;6.220;2023-03-23T03:23:34;99327.69;;;16.20;56.93
50268;BME280;36153;50.960;6.220;2023-03-23T03:26:39;99326.81;;;16.19;56.66
50268;BME280;36153;50.960;6.220;2023-03-23T03:29:41;99329.25;;;16.26;56.88
50268;BME280;36153;50.960;6.220;2023-03-23T03:32:51;99330.44;;;16.15;57.00
50268;BME280;36153;50.960;6.220;2023-03-23T03:35:54;99323.53;;;16.11;57.13
50268;BME280;36153;50.960;6.220;2023-03-23T03:38:58;99322.81;;;16.08;57.02
50268;BME280;36153;50.960;6.220;2023-03-23T03:41:59;99309.16;;;16.25;56.87
50268;BME280;36153;50.960;6.220;2023-03-23T03:44:59;99318.41;;;16.08;56.93
50268;BME280;36153;50.960;6.220;2023-03-23T03:48:00;99331.00;;;16.25;56.17
50268;BME280;36153;50.960;6.220;2023-03-23T03:51:02;99328.81;;;16.11;56.56
50268;BME280;36153;50.960;6.220;2023-03-23T03:54:02;99328.53;;;16.20;56.27
50268;BME280;36153;50.960;6.220;2023-03-23T03:57:03;99325.06;;;16.18;56.20
50268;BME280;36153;50.960;6.220;2023-03-23T04:00:07;99324.19;;;16.19;56.33
50268;BME280;36153;50.960;6.220;2023-03-23T04:03:15;99323.75;;;16.33;55.86
50268;BME280;36153;50.960;6.220;2023-03-23T04:06:17;99326.81;;;16.19;56.39
50268;BME280;36153;50.960;6.220;2023-03-23T04:09:18;99321.75;;;16.13;56.45
50268;BME280;36153;50.960;6.220;2023-03-23T04:12:19;99334.88;;;16.13;56.12
50268;BME280;36153;50.960;6.220;2023-03-23T04:15:20;99336.22;;;15.97;56.59
50268;BME280;36153;50.960;6.220;2023-03-23T04:18:20;99341.03;;;16.12;56.28
50268;BME280;36153;50.960;6.220;2023-03-23T04:21:21;99349.06;;;16.08;56.45
50268;BME280;36153;50.960;6.220;2023-03-23T04:24:22;99339.84;;;15.93;56.96
50268;BME280;36153;50.960;6.220;2023-03-23T04:27:27;99351.03;;;15.99;56.83
50268;BME280;36153;50.960;6.220;2023-03-23T04:30:28;99355.09;;;16.10;56.54
50268;BME280;36153;50.960;6.220;2023-03-23T04:33:30;99351.84;;;16.01;56.72
50268;BME280;36153;50.960;6.220;2023-03-23T04:36:31;99359.94;;;15.94;56.92
50268;BME280;36153;50.960;6.220;2023-03-23T04:39:33;99353.13;;;15.88;56.89
50268;BME280;36153;50.960;6.220;2023-03-23T04:42:34;99353.72;;;15.98;56.64
50268;BME280;36153;50.960;6.220;2023-03-23T04:45:35;99354.81;;;15.89;56.90
50268;BME280;36153;50.960;6.220;2023-03-23T04:48:37;99360.72;;;15.97;56.75
50268;BME280;36153;50.960;6.220;2023-03-23T04:51:39;99362.72;;;15.87;57.03
50268;BME280;36153;50.960;6.220;2023-03-23T04:54:40;99364.22;;;15.98;56.87
50268;BME280;36153;50.960;6.220;2023-03-23T04:57:40;99365.19;;;15.94;56.89
50268;BME280;36153;50.960;6.220;2023-03-23T05:00:41;99368.09;;;15.84;57.19
50268;BME280;36153;50.960;6.220;2023-03-23T05:03:44;99367.34;;;15.78;57.29
50268;BME280;36153;50.960;6.220;2023-03-23T05:06:44;99364.28;;;15.95;56.77
50268;BME280;36153;50.960;6.220;2023-03-23T05:09:48;99367.00;;;15.59;57.40
50268;BME280;36153;50.960;6.220;2023-03-23T05:12:49;99369.22;;;15.74;57.06
50268;BME280;36153;50.960;6.220;2023-03-23T05:15:50;99370.31;;;15.65;57.08
50268;BME280;36153;50.960;6.220;2023-03-23T05:18:51;99376.16;;;15.75;57.01
50268;BME280;36153;50.960;6.220;2023-03-23T05:21:53;99373.97;;;15.60;57.23
50268;BME280;36153;50.960;6.220;2023-03-23T05:24:54;99363.53;;;15.58;57.22
50268;BME280;36153;50.960;6.220;2023-03-23T05:27:54;99369.50;;;15.63;56.90
50268;BME280;36153;50.960;6.220;2023-03-23T05:30:54;99362.28;;;15.72;56.63
50268;BME280;36153;50.960;6.220;2023-03-23T05:33:56;99375.44;;;15.37;57.42
50268;BME280;36153;50.960;6.220;2023-03-23T05:36:56;99368.69;;;15.61;56.72
50268;BME280;36153;50.960;6.220;2023-03-23T05:39:58;99376.53;;;15.61;56.58
50268;BME280;36153;50.960;6.220;2023-03-23T05:43:01;99381.88;;;15.58;56.36
50268;BME280;36153;50.960;6.220;2023-03-23T05:46:01;99391.34;;;15.64;56.18
50268;BME280;36153;50.960;6.220;2023-03-23T05:49:03;99394.31;;;15.84;55.62
50268;BME280;36153;50.960;6.220;2023-03-23T05:52:03;99387.50;;;15.77;55.71
50268;BME280;36153;50.960;6.220;2023-03-23T05:55:04;99384.22;;;16.00;55.11
50268;BME280;36153;50.960;6.220;2023-03-23T05:58:05;99392.25;;;15.96;55.15
50268;BME280;36153;50.960;6.220;2023-03-23T06:01:08;99396.50;;;16.00;55.10
50268;BME280;36153;50.960;6.220;2023-03-23T06:04:09;99396.34;;;16.06;54.96
50268;BME280;36153;50.960;6.220;2023-03-23T06:07:11;99408.00;;;15.96;54.97
50268;BME280;36153;50.960;6.220;2023-03-23T06:10:14;99404.63;;;15.91;55.29
50268;BME280;36153;50.960;6.220;2023-03-23T06:13:15;99412.25;;;16.00;54.94
50268;BME280;36153;50.960;6.220;2023-03-23T06:16:15;99404.56;;;15.94;55.21
50268;BME280;36153;50.960;6.220;2023-03-23T06:19:16;99410.06;;;15.84;55.34
50268;BME280;36153;50.960;6.220;2023-03-23T06:22:17;99410.84;;;15.88;55.18
50268;BME280;36153;50.960;6.220;2023-03-23T06:25:18;99400.16;;;15.94;55.14
50268;BME280;36153;50.960;6.220;2023-03-23T06:28:19;99413.97;;;16.01;55.04
50268;BME280;36153;50.960;6.220;2023-03-23T06:31:19;99417.59;;;15.97;55.02
50268;BME280;36153;50.960;6.220;2023-03-23T06:34:20;99415.97;;;15.93;55.48
50268;BME280;36153;50.960;6.220;2023-03-23T06:37:21;99420.97;;;16.00;54.93
50268;BME280;36153;50.960;6.220;2023-03-23T06:40:21;99422.47;;;16.11;54.78
50268;BME280;36153;50.960;6.220;2023-03-23T06:43:22;99428.19;;;15.94;54.94
50268;BME280;36153;50.960;6.220;2023-03-23T06:46:22;99430.97;;;16.19;54.28
50268;BME280;36153;50.960;6.220;2023-03-23T06:49:23;99426.13;;;16.05;54.61
50268;BME280;36153;50.960;6.220;2023-03-23T06:52:24;99435.69;;;16.08;54.47
50268;BME280;36153;50.960;6.220;2023-03-23T06:55:25;99434.28;;;16.26;54.02
50268;BME280;36153;50.960;6.220;2023-03-23T06:58:25;99441.97;;;16.32;53.71
50268;BME280;36153;50.960;6.220;2023-03-23T07:01:26;99440.19;;;16.32;53.52
50268;BME280;36153;50.960;6.220;2023-03-23T07:04:28;99431.97;;;16.45;52.97
50268;BME280;36153;50.960;6.220;2023-03-23T07:07:29;99432.22;;;16.37;52.91
50268;BME280;36153;50.960;6.220;2023-03-23T07:10:29;99441.16;;;16.60;52.42
50268;BME280;36153;50.960;6.220;2023-03-23T07:13:33;99438.00;;;16.48;52.45
50268;BME280;36153;50.960;6.220;2023-03-23T07:16:33;99436.09;;;16.53;52.60
50268;BME280;36153;50.960;6.220;2023-03-23T07:19:33;99435.41;;;16.47;52.42
50268;BME280;36153;50.960;6.220;2023-03-23T07:22:35;99432.31;;;16.62;52.16
50268;BME280;36153;50.960;6.220;2023-03-23T07:25:35;99425.53;;;16.55;52.23
50268;BME280;36153;50.960;6.220;2023-03-23T07:28:36;99430.06;;;16.78;51.44
50268;BME280;36153;50.960;6.220;2023-03-23T07:31:37;99434.06;;;16.62;51.96
50268;BME280;36153;50.960;6.220;2023-03-23T07:34:37;99432.91;;;16.72;51.95
50268;BME280;36153;50.960;6.220;2023-03-23T07:37:38;99431.22;;;16.69;51.56
50268;BME280;36153;50.960;6.220;2023-03-23T07:40:38;99431.91;;;16.76;51.34
50268;BME280;36153;50.960;6.220;2023-03-23T07:43:39;99432.06;;;16.70;51.54
50268;BME280;36153;50.960;6.220;2023-03-23T07:46:41;99423.28;;;16.71;51.67
50268;BME280;36153;50.960;6.220;2023-03-23T07:49:42;99435.53;;;17.00;50.96
50268;BME280;36153;50.960;6.220;2023-03-23T07:52:43;99431.69;;;16.82;51.00
50268;BME280;36153;50.960;6.220;2023-03-23T07:55:43;99440.91;;;16.97;50.85
50268;BME280;36153;50.960;6.220;2023-03-23T07:58:45;99439.63;;;17.11;50.37
50268;BME280;36153;50.960;6.220;2023-03-23T08:01:46;99448.34;;;17.11;50.50
50268;BME280;36153;50.960;6.220;2023-03-23T08:04:46;99442.81;;;17.20;50.21
50268;BME280;36153;50.960;6.220;2023-03-23T08:07:48;99446.50;;;17.15;50.36
50268;BME280;36153;50.960;6.220;2023-03-23T08:10:49;99447.84;;;17.27;50.03
50268;BME280;36153;50.960;6.220;2023-03-23T08:18:28;99451.09;;;17.35;50.19
50268;BME280;36153;50.960;6.220;2023-03-23T08:22:15;99449.06;;;17.43;49.66
50268;BME280;36153;50.960;6.220;2023-03-23T08:26:09;99454.63;;;17.34;49.96
50268;BME280;36153;50.960;6.220;2023-03-23T08:29:21;99474.19;;;17.52;49.60
